createdAt,value
2022-09-15T19:44:00.099Z,97400.00
2022-09-15T19:46:30.005Z,97398.00
2022-09-15T19:49:00.115Z,97402.00
2022-09-15T19:51:32.929Z,97405.00
2022-09-15T19:54:02.882Z,97401.00
2022-09-15T19:56:33.282Z,97403.00
2022-09-15T19:59:03.281Z,97410.00
2022-09-15T20:01:33.635Z,97413.00
2022-09-15T20:04:05.734Z,97413.00
2022-09-15T20:06:38.668Z,97409.00
2022-09-15T20:09:09.832Z,97412.00
2022-09-15T20:11:40.590Z,97415.00
2022-09-15T20:14:10.717Z,97415.00
2022-09-15T20:16:40.793Z,97419.00
2022-09-15T20:19:10.870Z,97415.00
2022-09-15T20:21:50.220Z,97418.00
2022-09-15T20:24:21.823Z,97407.00
2022-09-15T20:26:51.896Z,97422.00
2022-09-15T20:29:23.914Z,97420.00
2022-09-15T20:31:54.049Z,97425.00
2022-09-15T20:34:24.065Z,97430.00
2022-09-15T20:36:56.693Z,97424.00
2022-09-15T20:39:26.873Z,97429.00
2022-09-15T20:41:57.886Z,97426.00
2022-09-15T20:44:28.108Z,97431.00
2022-09-15T20:46:58.275Z,97429.00
2022-09-15T20:49:28.300Z,97427.00
2022-09-15T20:52:00.916Z,97424.00
2022-09-15T20:54:30.938Z,97425.00
2022-09-15T20:57:00.965Z,97427.00
2022-09-15T20:59:31.003Z,97425.00
2022-09-15T21:02:01.184Z,97419.00
2022-09-15T21:04:31.488Z,97419.00
2022-09-15T21:07:04.114Z,97414.00
2022-09-15T21:09:34.181Z,97420.00
2022-09-15T21:12:04.622Z,97422.00
2022-09-15T21:14:34.656Z,97416.00
2022-09-15T21:17:04.688Z,97417.00
2022-09-15T21:19:34.784Z,97433.00
2022-09-15T21:22:07.547Z,97438.00
2022-09-15T21:24:37.532Z,97431.00
2022-09-15T21:27:20.177Z,97439.00
2022-09-15T21:29:50.287Z,97442.00
2022-09-15T21:32:20.588Z,97438.00
2022-09-15T21:34:50.700Z,97450.00
2022-09-15T21:37:23.321Z,97449.00
2022-09-15T21:39:53.404Z,97458.00
2022-09-15T21:42:23.509Z,97451.00
2022-09-15T21:44:54.548Z,97456.00
2022-09-15T21:47:24.846Z,97459.00
2022-09-15T21:49:55.341Z,97461.00
2022-09-15T21:52:28.222Z,97473.00
2022-09-15T21:54:59.046Z,97477.00
2022-09-15T21:57:29.068Z,97477.00
2022-09-15T21:59:59.126Z,97483.00
2022-09-15T22:02:31.325Z,97488.00
2022-09-15T22:05:02.526Z,97483.00
2022-09-15T22:07:35.267Z,97491.00
2022-09-15T22:10:05.306Z,97495.00
2022-09-15T22:12:35.305Z,97486.00
2022-09-15T22:15:05.734Z,97500.00
2022-09-15T22:17:35.787Z,97496.00
2022-09-15T22:20:07.861Z,97493.00
2022-09-15T22:22:40.720Z,97486.00
2022-09-15T22:25:11.814Z,97480.00
2022-09-15T22:27:41.844Z,97487.00
2022-09-15T22:30:13.298Z,97495.00
2022-09-15T22:32:43.447Z,97492.00
2022-09-15T22:35:13.608Z,97481.00
2022-09-15T22:37:46.248Z,97481.00
2022-09-15T22:40:17.166Z,97495.00
2022-09-15T22:42:48.553Z,97495.00
2022-09-15T22:45:18.751Z,97495.00
2022-09-15T22:47:48.894Z,97499.00
2022-09-15T22:50:19.528Z,97498.00
2022-09-15T22:52:52.439Z,97495.00
2022-09-15T22:55:22.480Z,97498.00
2022-09-15T22:57:52.573Z,97505.00
2022-09-15T23:00:23.491Z,97501.00
2022-09-15T23:02:53.655Z,97495.00
2022-09-15T23:05:23.518Z,97510.00
2022-09-15T23:07:56.058Z,97505.00
2022-09-15T23:10:26.752Z,97511.00
2022-09-15T23:12:56.839Z,97514.00
2022-09-15T23:15:26.846Z,97522.00
2022-09-15T23:17:56.968Z,97516.00
2022-09-15T23:20:26.979Z,97511.00
2022-09-15T23:22:59.718Z,97509.00
2022-09-15T23:25:29.692Z,97504.00
2022-09-15T23:27:59.582Z,97511.00
2022-09-15T23:30:29.939Z,97509.00
2022-09-15T23:32:59.816Z,97504.00
2022-09-15T23:35:29.669Z,97512.00
2022-09-15T23:38:02.358Z,97505.00
2022-09-15T23:40:33.279Z,97509.00
2022-09-15T23:43:03.188Z,97509.00
2022-09-15T23:45:33.080Z,97518.00
2022-09-15T23:48:02.981Z,97509.00
2022-09-15T23:50:32.834Z,97503.00
2022-09-15T23:53:05.484Z,97512.00
2022-09-15T23:55:35.893Z,97515.00
2022-09-15T23:58:06.086Z,97504.00
